createdAt,value
2023-01-06T00:00:21.844Z,101714.88
2023-01-06T00:03:23.380Z,101721.06
2023-01-06T00:06:28.336Z,101722.44
2023-01-06T00:09:29.811Z,101735.19
2023-01-06T00:12:32.823Z,101727.41
2023-01-06T00:15:38.324Z,101713.16
2023-01-06T00:18:40.380Z,101707.66
2023-01-06T00:21:43.781Z,101709.41
2023-01-06T00:24:45.537Z,101691.41
2023-01-06T00:27:48.284Z,101695.66
2023-01-06T00:30:51.186Z,101706.69
2023-01-06T00:33:54.639Z,101717.56
2023-01-06T00:36:58.367Z,101718.34
2023-01-06T00:39:59.910Z,101719.56
2023-01-06T00:43:02.900Z,101708.25
2023-01-06T00:46:04.742Z,101716.56
2023-01-06T00:49:08.083Z,101718.44
2023-01-06T00:52:11.902Z,101717.16
2023-01-06T00:58:36.536Z,101708.56
2023-01-06T01:01:39.050Z,101711.81
2023-01-06T01:04:42.219Z,101706.88
2023-01-06T01:07:44.812Z,101693.66
2023-01-06T01:10:47.597Z,101703.88
2023-01-06T01:13:49.360Z,101700.13
2023-01-06T01:16:52.539Z,101699.28
2023-01-06T01:20:01.410Z,101698.09
2023-01-06T01:23:03.853Z,101692.50
2023-01-06T01:26:06.854Z,101688.56
2023-01-06T01:29:12.707Z,101684.81
2023-01-06T01:32:15.727Z,101679.84
2023-01-06T01:35:17.950Z,101666.91
2023-01-06T01:38:20.875Z,101675.31
2023-01-06T01:41:23.859Z,101675.94
2023-01-06T01:45:09.376Z,101684.63
2023-01-06T01:48:17.247Z,101687.16
2023-01-06T01:51:23.371Z,101673.19
2023-01-06T01:57:55.413Z,101671.38
2023-01-06T02:00:57.760Z,101664.13
2023-01-06T02:04:02.169Z,101668.72
2023-01-06T02:07:05.906Z,101670.19
2023-01-06T02:10:13.370Z,101661.44
2023-01-06T02:13:18.318Z,101658.78
2023-01-06T02:20:24.207Z,101666.03
2023-01-06T02:23:56.051Z,101647.63
2023-01-06T02:27:34.790Z,101641.78
2023-01-06T02:31:12.310Z,101633.41
2023-01-06T02:34:27.704Z,101631.53
2023-01-06T02:37:44.761Z,101631.72
2023-01-06T02:41:03.823Z,101628.59
2023-01-06T02:44:17.853Z,101630.31
2023-01-06T02:47:27.180Z,101631.59
2023-01-06T02:50:38.028Z,101638.34
2023-01-06T02:53:49.998Z,101633.28
2023-01-06T02:56:56.950Z,101627.91
2023-01-06T03:00:05.646Z,101626.84
2023-01-06T03:03:11.395Z,101621.63
2023-01-06T03:06:17.476Z,101620.44
2023-01-06T03:09:28.141Z,101619.38
2023-01-06T03:12:35.229Z,101614.16
2023-01-06T03:15:38.104Z,101599.81
2023-01-06T03:18:43.258Z,101591.41
2023-01-06T03:21:48.408Z,101591.63
2023-01-06T03:24:51.382Z,101590.81
2023-01-06T03:27:53.149Z,101593.09
2023-01-06T03:31:05.588Z,101588.75
2023-01-06T03:34:16.909Z,101584.53
2023-01-06T03:37:32.468Z,101584.16
2023-01-06T03:40:41.149Z,101581.97
2023-01-06T03:43:51.906Z,101588.28
2023-01-06T03:47:01.438Z,101577.63
2023-01-06T03:50:09.559Z,101575.31
2023-01-06T03:53:35.094Z,101561.69
2023-01-06T03:56:42.751Z,101567.59
2023-01-06T03:59:49.257Z,101568.84
2023-01-06T04:02:52.351Z,101559.44
2023-01-06T04:05:54.064Z,101549.84
2023-01-06T04:08:57.252Z,101548.59
2023-01-06T04:12:16.564Z,101549.81
2023-01-06T04:15:21.401Z,101551.47
2023-01-06T04:18:24.029Z,101547.91
2023-01-06T04:21:25.323Z,101546.28
2023-01-06T04:24:29.047Z,101542.94
2023-01-06T04:27:30.420Z,101531.84
2023-01-06T04:30:33.045Z,101524.50
2023-01-06T04:33:34.375Z,101515.91
2023-01-06T04:36:36.951Z,101516.53
2023-01-06T04:39:38.949Z,101523.69
2023-01-06T04:42:58.703Z,101505.00
2023-01-06T04:46:01.340Z,101496.63
2023-01-06T04:49:03.492Z,101485.94
2023-01-06T04:52:06.267Z,101485.94
2023-01-06T04:55:10.305Z,101480.09
2023-01-06T04:58:11.704Z,101473.56
2023-01-06T05:04:46.609Z,101458.09
2023-01-06T05:07:49.830Z,101458.94
2023-01-06T05:10:59.011Z,101456.22
2023-01-06T05:14:00.402Z,101465.22
2023-01-06T05:17:01.765Z,101461.88
2023-01-06T05:20:04.098Z,101467.72
2023-01-06T05:23:05.444Z,101454.56
2023-01-06T05:26:11.227Z,101448.25
2023-01-06T05:29:16.077Z,101448.25
2023-01-06T05:32:17.571Z,101456.22
2023-01-06T05:35:19.873Z,101449.50
2023-01-06T05:38:22.446Z,101459.16
2023-01-06T05:41:24.421Z,101435.25
2023-01-06T05:44:25.713Z,101444.25
2023-01-06T05:47:28.604Z,101452.66
2023-01-06T05:50:30.705Z,101441.13
2023-01-06T05:53:33.887Z,101442.16
2023-01-06T05:56:36.610Z,101442.59
2023-01-06T05:59:38.433Z,101448.66
2023-01-06T06:02:40.008Z,101448.66
2023-01-06T06:05:41.652Z,101445.75
2023-01-06T06:08:43.293Z,101447.41
2023-01-06T06:11:46.870Z,101425.41
2023-01-06T06:14:48.503Z,101394.41
2023-01-06T06:17:51.113Z,101401.13
2023-01-06T06:20:52.516Z,101398.59
2023-01-06T06:23:56.917Z,101399.84
2023-01-06T06:26:59.345Z,101410.50
2023-01-06T06:30:00.864Z,101410.34
2023-01-06T06:33:02.636Z,101405.31
2023-01-06T06:36:05.621Z,101395.03
2023-01-06T06:39:07.406Z,101396.09
2023-01-06T06:42:10.949Z,101393.56
2023-01-06T06:45:14.153Z,101389.59
2023-01-06T06:48:17.957Z,101383.09
2023-01-06T06:51:21.325Z,101378.69
2023-01-06T06:54:23.364Z,101386.22
2023-01-06T06:57:25.839Z,101376.41
2023-01-06T07:00:27.480Z,101379.53
2023-01-06T07:03:29.156Z,101372.59
2023-01-06T07:06:31.184Z,101366.97
2023-01-06T07:09:33.575Z,101371.16
2023-01-06T07:12:37.365Z,101357.94
2023-01-06T07:15:39.179Z,101355.84
2023-01-06T07:18:42.582Z,101356.25
2023-01-06T07:21:44.339Z,101360.66
2023-01-06T07:24:47.133Z,101373.84
2023-01-06T07:27:54.310Z,101368.00
2023-01-06T07:30:56.090Z,101360.25
2023-01-06T07:33:57.709Z,101371.53
2023-01-06T07:36:59.086Z,101371.50
2023-01-06T07:40:00.964Z,101374.44
2023-01-06T07:43:05.235Z,101379.47
2023-01-06T07:46:07.225Z,101387.22
2023-01-06T07:49:10.082Z,101386.44
2023-01-06T07:52:11.740Z,101379.25
2023-01-06T07:55:15.295Z,101373.81
2023-01-06T07:58:19.133Z,101351.59
2023-01-06T08:01:21.139Z,101358.06
2023-01-06T08:04:22.785Z,101348.22
2023-01-06T08:07:24.092Z,101339.41
2023-01-06T08:10:26.973Z,101345.06
2023-01-06T08:13:30.524Z,101328.88
2023-01-06T08:16:32.355Z,101321.75
2023-01-06T08:19:34.193Z,101327.81
2023-01-06T08:22:37.099Z,101329.66
2023-01-06T08:25:40.270Z,101327.56
2023-01-06T08:28:43.934Z,101317.69
2023-01-06T08:31:46.903Z,101308.22
2023-01-06T08:34:49.755Z,101315.75
2023-01-06T08:37:51.519Z,101319.50
2023-01-06T08:40:53.391Z,101320.34
2023-01-06T08:43:55.918Z,101321.25
2023-01-06T08:47:01.798Z,101311.69
2023-01-06T08:50:03.746Z,101299.25
2023-01-06T08:53:05.366Z,101289.63
2023-01-06T09:02:55.610Z,101280.13
2023-01-06T09:09:20.607Z,101306.31
2023-01-06T09:19:05.826Z,101305.84
2023-01-06T09:22:08.671Z,101301.56
2023-01-06T09:25:11.482Z,101279.88
2023-01-06T09:28:13.251Z,101280.47
2023-01-06T09:31:18.785Z,101275.72
2023-01-06T09:34:21.830Z,101276.44
2023-01-06T09:37:24.833Z,101267.41
2023-01-06T09:40:33.539Z,101257.72
2023-01-06T09:43:46.250Z,101257.19
2023-01-06T09:46:52.640Z,101257.41
2023-01-06T09:50:00.961Z,101253.97
2023-01-06T09:53:11.406Z,101240.31
2023-01-06T09:56:16.281Z,101246.09
2023-01-06T09:59:26.046Z,101242.97
2023-01-06T10:02:34.553Z,101234.09
2023-01-06T10:05:43.041Z,101227.31
2023-01-06T10:08:55.718Z,101230.00
2023-01-06T10:12:08.744Z,101214.09
2023-01-06T10:15:20.139Z,101202.72
2023-01-06T10:18:32.871Z,101196.03
2023-01-06T10:21:44.735Z,101210.66
2023-01-06T10:24:55.049Z,101219.31
2023-01-06T10:28:03.244Z,101204.03
2023-01-06T10:31:09.127Z,101195.34
2023-01-06T10:34:17.721Z,101174.81
2023-01-06T10:37:22.650Z,101172.22
2023-01-06T10:40:26.232Z,101175.22
2023-01-06T10:43:28.676Z,101179.97
2023-01-06T10:46:33.804Z,101199.47
2023-01-06T10:49:37.164Z,101183.22
2023-01-06T10:52:39.081Z,101173.56
2023-01-06T10:55:45.744Z,101177.59
2023-01-06T10:58:52.497Z,101172.63
2023-01-06T11:01:57.689Z,101172.72
2023-01-06T11:05:01.554Z,101172.00
2023-01-06T11:08:06.084Z,101164.53
2023-01-06T11:11:26.711Z,101164.53
2023-01-06T11:14:31.576Z,101160.81
2023-01-06T11:17:34.551Z,101152.63
2023-01-06T11:20:36.565Z,101150.13
2023-01-06T11:23:41.194Z,101150.13
2023-01-06T11:26:44.956Z,101135.38
2023-01-06T11:29:47.775Z,101137.75
2023-01-06T11:32:49.357Z,101127.53
2023-01-06T11:35:53.276Z,101127.06
2023-01-06T11:38:57.166Z,101122.28
2023-01-06T11:42:04.769Z,101113.97
2023-01-06T11:45:07.063Z,101127.50
2023-01-06T11:48:18.626Z,101126.81
2023-01-06T11:51:32.715Z,101135.72
2023-01-06T11:54:37.467Z,101113.25
2023-01-06T11:57:48.104Z,101114.91
2023-01-06T12:00:54.191Z,101099.81
2023-01-06T12:04:10.294Z,101103.88
2023-01-06T12:07:21.608Z,101105.28
2023-01-06T12:14:08.302Z,101090.00
2023-01-06T12:17:14.573Z,101093.16
2023-01-06T12:20:22.010Z,101091.38
2023-01-06T12:23:28.211Z,101083.66
2023-01-06T12:26:35.615Z,101079.72
2023-01-06T12:29:38.789Z,101081.38
2023-01-06T12:32:46.188Z,101075.84
2023-01-06T12:35:51.944Z,101082.31
2023-01-06T12:38:55.659Z,101066.72
2023-01-06T12:42:05.837Z,101059.91
2023-01-06T12:45:14.845Z,101066.81
2023-01-06T12:48:22.576Z,101059.53
2023-01-06T12:51:30.112Z,101060.69
2023-01-06T12:54:34.104Z,101062.94
2023-01-06T12:57:54.944Z,101060.31
2023-01-06T13:01:01.760Z,101067.28
2023-01-06T13:04:38.828Z,101070.34
2023-01-06T13:07:49.460Z,101063.06
2023-01-06T13:10:59.147Z,101062.56
2023-01-06T13:14:06.536Z,101058.16
2023-01-06T13:17:15.426Z,101065.06
2023-01-06T13:20:27.335Z,101066.72
2023-01-06T13:23:42.786Z,101064.91
2023-01-06T13:26:59.520Z,101069.41
2023-01-06T13:30:18.353Z,101075.97
2023-01-06T13:33:42.766Z,101081.38
2023-01-06T13:40:55.225Z,101080.22
2023-01-06T13:43:59.016Z,101076.53
2023-01-06T13:47:07.289Z,101086.28
2023-01-06T13:50:13.408Z,101095.09
2023-01-06T13:53:17.870Z,101109.25
2023-01-06T13:56:24.062Z,101105.44
2023-01-06T13:59:27.294Z,101100.25
2023-01-06T14:03:25.092Z,101095.25
2023-01-06T14:06:45.574Z,101110.13
2023-01-06T14:09:50.939Z,101112.06
2023-01-06T14:12:52.497Z,101112.72
2023-01-06T14:15:57.886Z,101118.16
2023-01-06T14:19:06.470Z,101126.03
2023-01-06T14:22:17.347Z,101125.88
2023-01-06T14:25:23.334Z,101125.97
2023-01-06T14:28:29.923Z,101132.78
2023-01-06T14:31:41.116Z,101137.31
2023-01-06T14:34:48.998Z,101147.38
2023-01-06T14:37:56.369Z,101148.94
2023-01-06T14:41:01.833Z,101156.47
2023-01-06T14:44:08.008Z,101144.66
2023-01-06T14:47:16.125Z,101147.06
2023-01-06T14:50:20.816Z,101156.03
2023-01-06T14:53:27.759Z,101145.91
2023-01-06T14:56:33.333Z,101158.66
2023-01-06T14:59:35.945Z,101154.50
2023-01-06T15:02:45.441Z,101165.94
2023-01-06T15:05:46.877Z,101169.53
2023-01-06T15:08:49.057Z,101164.97
2023-01-06T15:11:50.506Z,101174.06
2023-01-06T15:14:52.277Z,101168.47
2023-01-06T15:17:57.162Z,101170.50
2023-01-06T15:20:59.275Z,101172.16
2023-01-06T15:24:01.971Z,101176.56
2023-01-06T15:27:05.161Z,101192.41
2023-01-06T15:30:16.739Z,101189.09
2023-01-06T15:33:21.181Z,101191.59
2023-01-06T15:36:24.065Z,101202.06
2023-01-06T15:39:28.301Z,101205.88
2023-01-06T15:42:31.401Z,101211.94
2023-01-06T15:45:33.460Z,101216.00
2023-01-06T15:48:40.963Z,101227.44
2023-01-06T15:51:42.933Z,101226.09
2023-01-06T15:54:46.123Z,101234.06
2023-01-06T15:57:54.954Z,101234.56
2023-01-06T16:01:00.658Z,101227.41
2023-01-06T16:04:03.243Z,101231.59
2023-01-06T16:07:21.036Z,101244.78
2023-01-06T16:11:02.036Z,101247.41
2023-01-06T16:14:06.450Z,101254.44
2023-01-06T16:17:11.968Z,101252.41
2023-01-06T16:20:23.666Z,101253.50
2023-01-06T16:23:30.632Z,101256.78
2023-01-06T16:26:34.413Z,101263.69
2023-01-06T16:29:38.175Z,101265.16
2023-01-06T16:32:42.852Z,101264.66
2023-01-06T16:35:46.529Z,101262.41
2023-01-06T16:38:48.263Z,101273.59
2023-01-06T16:42:42.367Z,101280.97
2023-01-06T16:45:47.744Z,101282.75
2023-01-06T16:48:54.232Z,101278.59
2023-01-06T16:51:56.992Z,101279.75
2023-01-06T16:54:59.560Z,101287.22
2023-01-06T16:58:05.209Z,101298.91
2023-01-06T17:01:15.112Z,101300.09
2023-01-06T17:04:16.608Z,101304.56
2023-01-06T17:07:20.131Z,101306.25
2023-01-06T17:10:23.492Z,101301.00
2023-01-06T17:13:36.646Z,101311.94
2023-01-06T17:16:41.011Z,101310.03
2023-01-06T17:19:42.424Z,101314.69
2023-01-06T17:22:48.597Z,101319.56
2023-01-06T17:29:13.954Z,101326.56
2023-01-06T17:32:20.362Z,101332.66
2023-01-06T17:35:26.133Z,101327.41
2023-01-06T17:38:30.438Z,101343.22
2023-01-06T17:41:31.876Z,101343.66
2023-01-06T17:44:36.565Z,101349.38
2023-01-06T17:47:46.297Z,101350.84
2023-01-06T17:50:50.215Z,101354.53
2023-01-06T17:54:11.540Z,101354.78
2023-01-06T17:57:18.168Z,101358.81
2023-01-06T18:00:22.930Z,101355.25
2023-01-06T18:03:26.877Z,101365.22
2023-01-06T18:06:29.674Z,101368.38
2023-01-06T18:09:32.859Z,101369.63
2023-01-06T18:12:34.227Z,101374.25
2023-01-06T18:15:37.949Z,101367.56
2023-01-06T18:18:40.501Z,101370.47
2023-01-06T18:21:45.652Z,101373.78
2023-01-06T18:24:50.791Z,101375.31
2023-01-06T18:27:53.459Z,101369.03
2023-01-06T18:30:57.523Z,101376.59
2023-01-06T18:34:01.484Z,101369.91
2023-01-06T18:37:03.169Z,101381.69
2023-01-06T18:40:07.759Z,101376.09
2023-01-06T18:43:24.856Z,101375.03
2023-01-06T18:46:27.587Z,101369.63
2023-01-06T18:49:33.057Z,101391.72
2023-01-06T18:52:38.964Z,101385.88
2023-01-06T18:55:44.526Z,101380.88
2023-01-06T19:02:28.158Z,101382.78
2023-01-06T19:05:30.552Z,101390.38
2023-01-06T19:08:33.900Z,101389.31
2023-01-06T19:11:37.986Z,101398.84
2023-01-06T19:14:43.558Z,101396.56
2023-01-06T19:17:47.117Z,101408.16
2023-01-06T19:20:48.461Z,101410.91
2023-01-06T19:23:49.876Z,101408.25
2023-01-06T19:26:53.487Z,101405.28
2023-01-06T19:30:00.963Z,101402.56
2023-01-06T19:33:20.161Z,101410.91
2023-01-06T19:36:35.436Z,101404.22
2023-01-06T19:39:39.629Z,101409.97
2023-01-06T19:42:42.170Z,101418.81
2023-01-06T19:45:44.376Z,101417.06
2023-01-06T19:48:47.017Z,101412.31
2023-01-06T19:51:50.248Z,101415.66
2023-01-06T19:54:51.736Z,101419.75
2023-01-06T19:57:55.150Z,101425.22
2023-01-06T20:00:59.875Z,101421.19
2023-01-06T20:04:01.758Z,101425.75
2023-01-06T20:07:03.647Z,101435.50
2023-01-06T20:10:05.943Z,101424.19
2023-01-06T20:13:07.977Z,101428.38
2023-01-06T20:16:09.675Z,101430.88
2023-01-06T20:19:12.229Z,101439.38
2023-01-06T20:22:13.803Z,101438.31
2023-01-06T20:25:16.287Z,101427.84
2023-01-06T20:28:18.255Z,101430.56
2023-01-06T20:31:20.909Z,101423.59
2023-01-06T20:34:22.432Z,101439.88
2023-01-06T20:37:25.347Z,101434.81
2023-01-06T20:40:26.900Z,101428.91
2023-01-06T20:43:30.097Z,101438.31
2023-01-06T20:46:31.521Z,101435.47
2023-01-06T20:49:34.912Z,101438.31
2023-01-06T20:52:36.695Z,101449.47
2023-01-06T20:55:39.242Z,101447.16
2023-01-06T20:58:41.180Z,101454.91
2023-01-06T21:01:43.847Z,101450.94
2023-01-06T21:04:46.471Z,101450.50
2023-01-06T21:07:49.226Z,101457.69
2023-01-06T21:10:51.771Z,101463.81
2023-01-06T21:13:54.961Z,101458.22
2023-01-06T21:16:56.447Z,101456.31
2023-01-06T21:19:59.113Z,101459.94
2023-01-06T21:23:00.411Z,101448.91
2023-01-06T21:26:02.933Z,101458.03
2023-01-06T21:29:04.849Z,101462.22
2023-01-06T21:32:07.665Z,101456.59
2023-01-06T21:35:09.292Z,101454.75
2023-01-06T21:38:12.161Z,101454.28
2023-01-06T21:41:29.352Z,101455.41
2023-01-06T21:44:31.353Z,101449.38
2023-01-06T21:47:33.901Z,101449.84
2023-01-06T21:50:38.857Z,101457.06
2023-01-06T21:53:41.869Z,101454.03
2023-01-06T21:56:44.871Z,101469.69
2023-01-06T21:59:46.933Z,101459.75
2023-01-06T22:02:49.955Z,101460.50
2023-01-06T22:05:51.885Z,101463.13
2023-01-06T22:08:55.136Z,101469.44
2023-01-06T22:12:00.101Z,101465.38
2023-01-06T22:15:03.582Z,101464.28
2023-01-06T22:18:08.511Z,101466.03
2023-01-06T22:21:11.937Z,101465.88
2023-01-06T22:27:38.196Z,101471.56
2023-01-06T22:30:40.163Z,101479.53
2023-01-06T22:33:42.745Z,101484.19
2023-01-06T22:36:44.071Z,101489.63
2023-01-06T22:39:47.192Z,101483.28
2023-01-06T22:42:49.817Z,101492.72
2023-01-06T22:45:52.579Z,101488.97
2023-01-06T22:48:55.159Z,101489.34
2023-01-06T22:51:56.691Z,101481.53
2023-01-06T22:54:59.567Z,101478.63
2023-01-06T22:58:02.136Z,101483.56
2023-01-06T23:01:07.067Z,101478.03
2023-01-06T23:04:09.887Z,101473.66
2023-01-06T23:07:11.234Z,101474.31
2023-01-06T23:10:15.172Z,101463.38
2023-01-06T23:13:17.862Z,101470.28
2023-01-06T23:16:21.478Z,101462.72
2023-01-06T23:19:24.041Z,101463.69
2023-01-06T23:22:25.685Z,101472.34
2023-01-06T23:25:28.291Z,101472.50
2023-01-06T23:28:29.733Z,101468.63
2023-01-06T23:31:34.921Z,101469.38
2023-01-06T23:34:37.556Z,101468.78
2023-01-06T23:37:38.860Z,101478.75
2023-01-06T23:40:41.412Z,101475.03
2023-01-06T23:43:43.377Z,101478.66
2023-01-06T23:46:47.468Z,101471.81
2023-01-06T23:49:50.048Z,101472.41
2023-01-06T23:52:54.072Z,101481.47
2023-01-06T23:55:58.686Z,101478.50
2023-01-06T23:59:02.631Z,101477.06
